Time;durP1;ratioP1;P1;durP2;ratioP2;P2;SDS_P1;SDS_P2;PMS_P1;PMS_P2;Temp;Humidity;BMP_temperature;BMP_pressure;BME280_temperature;BME280_humidity;BME280_pressure;Samples;Min_cycle;Max_cycle;Signal;HPM_P1;HPM_P2
2022/10/28 00:02:03;;;;;;;10.05;2.85;;;18.10;99.90;;;;;;5070104;28;20054;-76
2022/10/28 00:04:28;;;;;;;12.35;3.13;;;18.10;99.90;;;;;;5070077;28;20036;-77
2022/10/28 00:06:54;;;;;;;11.48;2.60;;;18.10;99.90;;;;;;5068706;28;20041;-76
2022/10/28 00:09:20;;;;;;;8.18;2.83;;;18.10;99.90;;;;;;5069971;28;20024;-76
2022/10/28 00:11:45;;;;;;;7.65;3.00;;;18.10;99.90;;;;;;5069267;28;20020;-77
2022/10/28 00:14:12;;;;;;;5.15;2.72;;;18.10;99.90;;;;;;5068676;28;20542;-76
2022/10/28 00:16:38;;;;;;;9.35;3.20;;;18.10;99.90;;;;;;5068918;28;20119;-78
2022/10/28 00:19:06;;;;;;;10.90;3.10;;;18.00;99.90;;;;;;5069730;28;20470;-78
2022/10/28 00:21:34;;;;;;;8.57;2.42;;;18.00;99.90;;;;;;5068856;28;20036;-77
2022/10/28 00:24:00;;;;;;;8.68;3.13;;;18.00;99.90;;;;;;5069761;28;20027;-78
2022/10/28 00:26:29;;;;;;;8.13;2.78;;;18.10;99.90;;;;;;5070338;28;20021;-78
2022/10/28 00:29:02;;;;;;;8.15;2.90;;;18.10;99.90;;;;;;5070074;28;20049;-77
2022/10/28 00:31:29;;;;;;;5.97;3.10;;;18.10;99.90;;;;;;5068619;28;20033;-80
2022/10/28 00:33:57;;;;;;;8.52;3.13;;;18.10;99.90;;;;;;5069992;28;20029;-75
2022/10/28 00:36:30;;;;;;;14.88;3.08;;;18.10;99.90;;;;;;5069648;28;20036;-76
2022/10/28 00:38:56;;;;;;;10.63;2.75;;;18.10;99.90;;;;;;5072565;28;20085;-76
2022/10/28 00:41:34;;;;;;;6.13;2.67;;;18.10;99.90;;;;;;5073754;28;20016;-75
2022/10/28 00:44:21;;;;;;;21.55;3.25;;;18.10;99.90;;;;;;5073318;28;20108;-76
2022/10/28 00:46:50;;;;;;;12.80;3.13;;;18.20;99.90;;;;;;5073055;28;20036;-75
2022/10/28 00:49:31;;;;;;;8.90;3.22;;;18.10;99.90;;;;;;5071936;28;20041;-75
2022/10/28 00:52:07;;;;;;;8.48;2.83;;;18.10;99.90;;;;;;5072990;28;20140;-76
2022/10/28 00:54:34;;;;;;;10.07;2.95;;;18.10;99.90;;;;;;5072962;28;20040;-75
2022/10/28 00:57:04;;;;;;;12.65;3.05;;;18.10;99.90;;;;;;5072983;28;20013;-75
2022/10/28 00:59:36;;;;;;;7.60;2.60;;;18.10;99.90;;;;;;5073325;28;20017;-76
2022/10/28 01:02:03;;;;;;;5.70;2.70;;;18.10;99.90;;;;;;5072741;28;20047;-75
2022/10/28 01:04:29;;;;;;;6.20;2.70;;;18.10;99.90;;;;;;5071614;28;20089;-76
2022/10/28 01:06:57;;;;;;;10.77;2.90;;;18.10;99.90;;;;;;5072814;28;20097;-76
2022/10/28 01:09:23;;;;;;;6.53;3.20;;;18.10;99.90;;;;;;5072584;28;20024;-75
2022/10/28 01:12:14;;;;;;;11.10;3.00;;;18.10;99.90;;;;;;5073198;28;20024;-74
2022/10/28 01:14:55;;;;;;;11.10;3.45;;;18.10;99.90;;;;;;5072536;28;20255;-75
2022/10/28 01:17:24;;;;;;;18.73;3.42;;;18.10;99.90;;;;;;5072561;28;20032;-75
2022/10/28 01:20:14;;;;;;;6.97;2.65;;;18.20;99.90;;;;;;5072304;28;20067;-75
2022/10/28 01:23:09;;;;;;;6.63;2.95;;;18.10;99.90;;;;;;5072786;28;20032;-77
2022/10/28 01:25:48;;;;;;;8.93;2.47;;;18.20;99.90;;;;;;5072458;28;20044;-76
2022/10/28 01:28:34;;;;;;;8.55;2.90;;;18.10;99.90;;;;;;5072323;28;20040;-76
2022/10/28 01:31:36;;;;;;;8.50;3.03;;;18.10;99.90;;;;;;5071172;28;20071;-76
2022/10/28 01:34:42;;;;;;;4.50;2.45;;;18.10;99.90;;;;;;5049862;28;20032;-77
2022/10/28 01:37:55;;;;;;;11.15;3.38;;;18.10;99.90;;;;;;5029960;28;20053;-75
2022/10/28 01:40:35;;;;;;;6.85;2.75;;;18.10;99.90;;;;;;5049183;28;20029;-76
2022/10/28 01:43:13;;;;;;;11.32;3.78;;;18.10;99.90;;;;;;5071001;28;20078;-78
2022/10/28 01:46:13;;;;;;;7.80;2.63;;;18.10;99.90;;;;;;5072055;28;20062;-77
2022/10/28 01:48:53;;;;;;;11.45;3.58;;;18.10;99.90;;;;;;5071743;28;20036;-76
2022/10/28 01:51:25;;;;;;;14.50;3.40;;;18.00;99.90;;;;;;5071294;28;20033;-76
2022/10/28 01:53:54;;;;;;;18.70;3.50;;;18.10;99.90;;;;;;5071905;28;20435;-76
2022/10/28 01:56:25;;;;;;;10.48;2.88;;;18.00;99.90;;;;;;5072632;28;20081;-77
2022/10/28 01:58:55;;;;;;;7.07;3.00;;;18.00;99.90;;;;;;5070611;28;20044;-76
2022/10/28 02:01:22;;;;;;;15.32;2.83;;;18.00;99.90;;;;;;5071774;28;20496;-77
2022/10/28 02:03:49;;;;;;;7.55;3.30;;;18.00;99.90;;;;;;5070584;28;20382;-76
2022/10/28 02:06:19;;;;;;;9.87;2.97;;;18.00;99.90;;;;;;5071707;28;20032;-76
2022/10/28 02:09:00;;;;;;;9.27;2.80;;;18.00;99.90;;;;;;5072327;28;20256;-75
2022/10/28 02:11:48;;;;;;;13.43;3.53;;;18.00;99.90;;;;;;5071708;28;20363;-76
2022/10/28 02:14:37;;;;;;;11.57;3.30;;;18.00;99.90;;;;;;5071554;28;20064;-76
2022/10/28 02:17:30;;;;;;;11.60;3.13;;;18.00;99.90;;;;;;5071361;28;20119;-75
2022/10/28 02:20:01;;;;;;;10.68;3.00;;;18.00;99.90;;;;;;5071263;28;20036;-76
2022/10/28 02:22:47;;;;;;;5.68;2.70;;;18.00;99.90;;;;;;5071323;28;20024;-78
2022/10/28 02:25:21;;;;;;;8.80;2.88;;;17.90;99.90;;;;;;5071304;28;20051;-75
2022/10/28 02:27:52;;;;;;;11.32;3.28;;;17.90;99.90;;;;;;5071375;28;20155;-78
2022/10/28 02:30:31;;;;;;;8.65;2.80;;;17.90;99.90;;;;;;5071169;28;20040;-76
2022/10/28 02:33:00;;;;;;;10.02;3.00;;;17.90;99.90;;;;;;5071446;28;20405;-76
2022/10/28 02:35:37;;;;;;;9.55;2.63;;;17.90;99.90;;;;;;5071744;28;20013;-76
2022/10/28 02:38:09;;;;;;;12.45;2.60;;;17.80;99.90;;;;;;5071043;28;20055;-75
2022/10/28 02:40:37;;;;;;;9.00;2.50;;;17.90;99.90;;;;;;5070932;28;20025;-77
2022/10/28 02:43:05;;;;;;;;;;;17.90;99.90;;;;;;5071571;28;20035;-74
2022/10/28 02:45:36;;;;;;;10.98;2.78;;;17.80;99.90;;;;;;5070839;28;19966;-76
2022/10/28 02:48:25;;;;;;;7.70;3.03;;;17.80;99.90;;;;;;5070774;28;20349;-76
2022/10/28 02:51:04;;;;;;;13.35;3.83;;;17.90;99.90;;;;;;5070671;28;20032;-76
2022/10/28 02:53:35;;;;;;;5.70;2.75;;;17.90;99.90;;;;;;5070949;28;20024;-76
2022/10/28 02:56:03;;;;;;;13.25;3.38;;;17.90;99.90;;;;;;5070499;28;20028;-76
2022/10/28 02:58:38;;;;;;;9.27;3.13;;;17.90;99.90;;;;;;5070899;28;20037;-77
2022/10/28 03:01:03;;;;;;;9.90;3.65;;;17.90;99.90;;;;;;5070521;28;20084;-77
2022/10/28 03:03:29;;;;;;;8.52;2.40;;;17.90;99.90;;;;;;5070249;28;20033;-77
2022/10/28 03:05:55;;;;;;;12.57;3.28;;;17.90;99.90;;;;;;5070193;28;20458;-78
2022/10/28 03:08:20;;;;;;;9.30;3.05;;;17.90;99.90;;;;;;5069854;28;20324;-76
2022/10/28 03:10:46;;;;;;;11.52;3.22;;;17.90;99.90;;;;;;5070524;28;20406;-76
2022/10/28 03:13:11;;;;;;;11.10;2.65;;;17.90;99.90;;;;;;5070134;28;20056;-76
2022/10/28 03:15:37;;;;;;;11.07;3.70;;;17.90;99.90;;;;;;5070444;28;20447;-75
2022/10/28 03:18:03;;;;;;;10.35;3.47;;;17.90;99.90;;;;;;5070592;28;20354;-76
2022/10/28 03:20:28;;;;;;;16.25;3.10;;;17.90;99.90;;;;;;5070794;28;20470;-75
2022/10/28 03:22:54;;;;;;;9.65;2.67;;;17.80;99.90;;;;;;5069259;28;20032;-76
2022/10/28 03:25:20;;;;;;;10.15;3.25;;;17.80;99.90;;;;;;5070119;28;20411;-77
2022/10/28 03:27:45;;;;;;;6.15;2.75;;;17.80;99.90;;;;;;5069134;28;20489;-77
2022/10/28 03:30:13;;;;;;;8.13;2.78;;;17.90;99.90;;;;;;5070057;28;20052;-76
2022/10/28 03:32:41;;;;;;;10.82;3.05;;;17.80;99.90;;;;;;5070500;28;20146;-75
2022/10/28 03:35:07;;;;;;;;;;;17.80;99.90;;;;;;5070608;28;20028;-75
2022/10/28 03:37:32;;;;;;;10.57;2.88;;;17.80;99.90;;;;;;5070393;28;19958;-75
2022/10/28 03:40:01;;;;;;;11.60;2.50;;;17.80;99.90;;;;;;5070210;28;20434;-77
2022/10/28 03:42:27;;;;;;;12.05;3.55;;;17.80;99.90;;;;;;5070183;28;20078;-77
2022/10/28 03:44:52;;;;;;;14.13;2.83;;;17.80;99.90;;;;;;5068752;28;20028;-76
2022/10/28 03:47:18;;;;;;;8.50;2.63;;;17.80;99.90;;;;;;5070385;28;20056;-76
2022/10/28 03:49:44;;;;;;;7.57;2.70;;;17.80;99.90;;;;;;5069873;28;20033;-76
2022/10/28 03:52:09;;;;;;;13.00;2.90;;;17.80;99.90;;;;;;5070022;28;20029;-77
2022/10/28 03:54:35;;;;;;;7.65;2.83;;;17.80;99.90;;;;;;5070008;28;20424;-77
2022/10/28 03:57:00;;;;;;;8.50;2.47;;;17.70;99.90;;;;;;5068648;28;20020;-75
2022/10/28 03:59:26;;;;;;;7.68;3.50;;;17.80;99.90;;;;;;5070610;28;20025;-76
2022/10/28 04:01:52;;;;;;;11.63;3.30;;;17.80;99.90;;;;;;5069806;28;20341;-77
2022/10/28 04:04:17;;;;;;;12.52;3.33;;;17.80;99.90;;;;;;5068508;28;20025;-75
2022/10/28 04:06:43;;;;;;;7.50;2.63;;;17.80;99.90;;;;;;5069739;28;20040;-75
2022/10/28 04:09:08;;;;;;;10.52;3.63;;;17.80;99.90;;;;;;5069691;28;20025;-76
2022/10/28 04:11:34;;;;;;;8.18;2.85;;;17.80;99.90;;;;;;5069007;28;20028;-74
2022/10/28 04:14:00;;;;;;;6.95;2.53;;;17.80;99.90;;;;;;5072508;28;20161;-75
2022/10/28 04:16:26;;;;;;;12.70;3.38;;;17.80;99.90;;;;;;5073710;28;20029;-76
2022/10/28 04:18:51;;;;;;;19.40;3.20;;;17.80;99.90;;;;;;5073621;28;20520;-76
2022/10/28 04:21:17;;;;;;;7.78;3.00;;;17.80;99.90;;;;;;5073448;28;20021;-77
2022/10/28 04:23:42;;;;;;;10.88;3.80;;;17.80;99.90;;;;;;5073964;28;20056;-76
2022/10/28 04:26:08;;;;;;;11.60;2.97;;;17.80;99.90;;;;;;5072704;28;20084;-77
2022/10/28 04:28:34;;;;;;;11.63;3.13;;;17.80;99.90;;;;;;5073597;28;20423;-76
2022/10/28 04:31:01;;;;;;;10.23;2.65;;;17.80;99.90;;;;;;5073320;28;20557;-75
2022/10/28 04:33:27;;;;;;;7.30;3.40;;;17.80;99.90;;;;;;5073321;28;20111;-76
2022/10/28 04:35:53;;;;;;;6.20;2.72;;;17.80;99.90;;;;;;5073239;28;20067;-76
2022/10/28 04:38:18;;;;;;;7.30;2.63;;;17.80;99.90;;;;;;5073647;28;20447;-74
2022/10/28 04:40:47;;;;;;;10.95;2.80;;;17.80;99.90;;;;;;5072246;28;20028;-76
2022/10/28 04:43:13;;;;;;;7.32;2.80;;;17.80;99.90;;;;;;5073128;28;20032;-75
2022/10/28 04:45:40;;;;;;;9.85;3.08;;;17.80;99.90;;;;;;5072142;28;20418;-75
2022/10/28 04:48:07;;;;;;;8.10;2.83;;;17.80;99.90;;;;;;5072950;28;20017;-75
2022/10/28 04:50:34;;;;;;;15.68;3.40;;;17.80;99.90;;;;;;5073376;28;20058;-74
2022/10/28 04:53:01;;;;;;;11.95;3.03;;;17.80;99.90;;;;;;5071765;28;20119;-76
2022/10/28 04:55:26;;;;;;;6.38;2.53;;;17.90;99.90;;;;;;5072914;28;20051;-76
2022/10/28 04:57:57;;;;;;;15.50;3.05;;;17.90;99.90;;;;;;5073094;28;20450;-75
2022/10/28 05:00:25;;;;;;;10.82;2.88;;;17.90;99.90;;;;;;5073021;28;20501;-77
2022/10/28 05:02:50;;;;;;;9.50;2.80;;;17.90;99.90;;;;;;5072857;28;20322;-76
2022/10/28 05:05:16;;;;;;;11.30;3.47;;;17.90;99.90;;;;;;5073198;28;20017;-76
2022/10/28 05:07:42;;;;;;;8.27;2.67;;;17.90;99.90;;;;;;5073141;28;20210;-78
2022/10/28 05:10:08;;;;;;;11.13;2.85;;;17.90;99.90;;;;;;5071410;28;20458;-78
2022/10/28 05:12:33;;;;;;;11.10;3.17;;;17.90;99.90;;;;;;5071328;28;20032;-78
2022/10/28 05:14:59;;;;;;;10.70;3.05;;;17.90;99.90;;;;;;5072728;28;20154;-76
2022/10/28 05:17:25;;;;;;;8.90;2.83;;;17.90;99.90;;;;;;5072999;28;20032;-76
2022/10/28 05:19:50;;;;;;;13.00;2.75;;;17.90;99.90;;;;;;5071510;28;20382;-77
2022/10/28 05:22:16;;;;;;;10.82;3.13;;;17.90;99.90;;;;;;5071438;28;20028;-77
2022/10/28 05:24:42;;;;;;;12.20;3.17;;;17.90;99.90;;;;;;5070341;28;20043;-76
2022/10/28 05:27:07;;;;;;;12.27;3.08;;;17.90;99.90;;;;;;5072567;28;20032;-76
2022/10/28 05:29:33;;;;;;;6.97;2.60;;;17.90;99.90;;;;;;5072651;28;20086;-76
2022/10/28 05:31:59;;;;;;;14.02;3.03;;;17.90;99.90;;;;;;5072593;28;20035;-77
2022/10/28 05:34:25;;;;;;;12.52;3.25;;;17.90;99.90;;;;;;5072392;28;20116;-77
2022/10/28 05:36:50;;;;;;;7.90;2.63;;;17.90;99.90;;;;;;5071235;28;20447;-76
2022/10/28 05:39:17;;;;;;;8.57;2.97;;;17.90;99.90;;;;;;5072254;28;20028;-78
2022/10/28 05:41:42;;;;;;;10.75;3.35;;;17.90;99.90;;;;;;5071493;28;20017;-77
2022/10/28 05:44:09;;;;;;;13.25;2.70;;;17.90;99.90;;;;;;5071318;28;20028;-77
2022/10/28 05:46:34;;;;;;;18.50;3.58;;;17.90;99.90;;;;;;5071261;28;20045;-78
2022/10/28 05:49:00;;;;;;;12.43;2.50;;;17.80;99.90;;;;;;5072302;28;20036;-77
2022/10/28 05:51:25;;;;;;;7.18;2.63;;;17.80;99.90;;;;;;5072209;28;20051;-79
2022/10/28 05:53:51;;;;;;;9.93;2.75;;;17.80;99.90;;;;;;5072117;28;20029;-77
2022/10/28 05:56:17;;;;;;;16.55;4.47;;;17.80;99.90;;;;;;5072334;28;20021;-76
2022/10/28 05:58:43;;;;;;;15.63;5.13;;;17.80;99.90;;;;;;5071072;28;20116;-76
2022/10/28 06:01:09;;;;;;;17.83;5.88;;;17.80;99.90;;;;;;5072113;28;20190;-79
2022/10/28 06:03:34;;;;;;;7.90;3.30;;;17.80;99.90;;;;;;5070496;28;20578;-81
2022/10/28 06:06:00;;;;;;;13.85;3.25;;;17.80;99.90;;;;;;5071878;28;20053;-79
2022/10/28 06:08:26;;;;;;;20.63;5.03;;;17.80;99.90;;;;;;5071626;28;20021;-81
2022/10/28 06:10:53;;;;;;;12.15;4.68;;;17.80;99.90;;;;;;5070596;28;20075;-79
2022/10/28 06:13:20;;;;;;;18.87;4.73;;;17.80;99.90;;;;;;5071739;28;20506;-79
2022/10/28 06:15:53;;;;;;;13.57;4.13;;;17.80;99.90;;;;;;5071825;28;20116;-80
2022/10/28 06:18:19;;;;;;;12.10;3.40;;;17.80;99.90;;;;;;5071726;28;20478;-81
2022/10/28 06:20:51;;;;;;;13.57;3.35;;;17.70;99.90;;;;;;5071895;28;20109;-78
2022/10/28 06:23:17;;;;;;;11.65;3.78;;;17.70;99.90;;;;;;5067166;28;20044;-78
2022/10/28 06:25:43;;;;;;;8.48;3.28;;;17.80;99.90;;;;;;5050685;28;20037;-77
2022/10/28 06:28:08;;;;;;;19.05;5.22;;;17.80;99.90;;;;;;5051533;28;20130;-79
2022/10/28 06:30:34;;;;;;;21.45;4.15;;;17.80;99.90;;;;;;5051321;28;20052;-77
2022/10/28 06:33:00;;;;;;;9.60;3.17;;;17.80;99.90;;;;;;5051183;28;20074;-74
2022/10/28 06:35:26;;;;;;;9.13;3.38;;;17.80;99.90;;;;;;5051253;28;20126;-78
2022/10/28 06:37:56;;;;;;;21.25;3.72;;;17.80;99.90;;;;;;5051685;28;20052;-79
2022/10/28 06:40:25;;;;;;;11.13;3.50;;;17.80;99.90;;;;;;5051793;28;20397;-82
2022/10/28 06:43:17;;;;;;;9.00;3.03;;;17.80;99.90;;;;;;5052311;28;20359;-80
2022/10/28 06:45:45;;;;;;;10.85;3.47;;;17.90;99.90;;;;;;5048153;28;20063;-85
2022/10/28 06:48:11;;;;;;;;;;;17.90;99.90;;;;;;5067946;28;20052;-81
2022/10/28 06:50:37;;;;;;;9.55;4.13;;;17.90;99.90;;;;;;5052085;28;20252;-81
2022/10/28 06:53:03;;;;;;;21.67;4.68;;;17.90;99.90;;;;;;5050324;28;20055;-82
2022/10/28 06:55:29;;;;;;;15.00;3.58;;;18.00;99.90;;;;;;5051785;28;20028;-83
2022/10/28 06:58:00;;;;;;;11.60;3.40;;;18.00;99.90;;;;;;5051206;28;20029;-80
2022/10/28 07:00:26;;;;;;;12.80;3.13;;;18.10;99.90;;;;;;5050744;28;20363;-84
2022/10/28 07:02:52;;;;;;;11.85;3.22;;;18.10;99.90;;;;;;5051663;28;20461;-79
2022/10/28 07:05:19;;;;;;;9.00;2.97;;;18.10;99.90;;;;;;5066865;28;20347;-80
2022/10/28 07:07:44;;;;;;;18.20;3.80;;;18.20;99.90;;;;;;5051020;28;20029;-81
2022/10/28 07:10:10;;;;;;;14.95;3.78;;;18.20;99.90;;;;;;5066449;28;20166;-81
2022/10/28 07:12:36;;;;;;;11.02;3.10;;;18.20;99.90;;;;;;5050723;28;20041;-80
2022/10/28 07:15:02;;;;;;;11.40;3.33;;;18.20;99.90;;;;;;5050750;28;20060;-82
2022/10/28 07:17:28;;;;;;;12.52;3.33;;;18.20;99.90;;;;;;5051413;28;20021;-81
2022/10/28 07:19:53;;;;;;;11.32;3.58;;;18.30;99.90;;;;;;5050992;28;20033;-81
2022/10/28 07:22:19;;;;;;;10.82;3.15;;;18.30;99.90;;;;;;5065950;28;20043;-81
2022/10/28 07:24:44;;;;;;;10.43;2.72;;;18.30;99.90;;;;;;5066598;28;20089;-78
2022/10/28 07:27:10;;;;;;;14.85;3.42;;;18.30;99.90;;;;;;5065948;28;20096;-81
2022/10/28 07:29:36;;;;;;;12.52;4.28;;;18.30;99.90;;;;;;5050662;28;20395;-77
2022/10/28 07:32:02;;;;;;;13.05;3.15;;;18.30;99.90;;;;;;5050394;28;20512;-78
2022/10/28 07:34:27;;;;;;;12.25;3.20;;;18.30;99.90;;;;;;5050152;28;20068;-80
2022/10/28 07:36:54;;;;;;;19.58;4.18;;;18.40;99.90;;;;;;5050195;28;20029;-78
2022/10/28 07:39:20;;;;;;;21.65;7.95;;;18.40;99.90;;;;;;5050153;28;20128;-78
2022/10/28 07:41:46;;;;;;;10.20;4.38;;;18.40;99.90;;;;;;5066123;28;20021;-78
2022/10/28 07:44:13;;;;;;;13.68;2.97;;;18.40;99.90;;;;;;5050249;28;20072;-81
2022/10/28 07:46:39;;;;;;;13.88;3.60;;;18.50;99.90;;;;;;5050627;28;20402;-78
2022/10/28 07:49:05;;;;;;;6.38;2.58;;;18.50;99.90;;;;;;5050319;28;20095;-80
2022/10/28 07:51:30;;;;;;;7.90;2.60;;;18.50;99.90;;;;;;5066855;28;20036;-83
2022/10/28 07:53:57;;;;;;;10.65;2.95;;;18.60;99.90;;;;;;5050983;28;20032;-79
2022/10/28 07:56:23;;;;;;;7.35;2.72;;;18.60;99.90;;;;;;5051083;28;20050;-80
2022/10/28 07:58:49;;;;;;;20.63;4.18;;;18.70;99.90;;;;;;5050404;28;20493;-79
2022/10/28 08:01:17;;;;;;;21.90;7.13;;;18.80;99.90;;;;;;5050496;28;20029;-81
2022/10/28 08:03:43;;;;;;;15.02;7.40;;;18.80;99.90;;;;;;5049748;28;20041;-79
2022/10/28 08:06:12;;;;;;;11.50;3.20;;;18.90;99.90;;;;;;5065580;28;20032;-79
2022/10/28 08:08:38;;;;;;;15.52;2.92;;;18.90;99.90;;;;;;5050584;28;20027;-80
2022/10/28 08:11:14;;;;;;;8.82;3.38;;;19.00;99.90;;;;;;5050012;28;20539;-76
2022/10/28 08:13:42;;;;;;;19.95;3.38;;;19.10;99.90;;;;;;5049818;28;20065;-80
2022/10/28 08:16:08;;;;;;;;;;;19.20;99.90;;;;;;5050398;28;20127;-79
2022/10/28 08:18:34;;;;;;;9.88;3.47;;;19.30;99.90;;;;;;5049969;28;19967;-78
2022/10/28 08:21:01;;;;;;;13.07;3.63;;;19.40;99.90;;;;;;5050884;28;20102;-83
2022/10/28 08:23:28;;;;;;;11.07;2.95;;;19.50;99.90;;;;;;5066181;28;20112;-78
2022/10/28 08:25:54;;;;;;;16.15;3.58;;;19.70;99.90;;;;;;5050177;28;20033;-82
2022/10/28 08:28:20;;;;;;;12.38;2.85;;;19.90;99.90;;;;;;5050241;28;20482;-78
2022/10/28 08:30:46;;;;;;;10.60;3.30;;;20.00;99.70;;;;;;5065191;28;20382;-80
2022/10/28 08:33:13;;;;;;;11.38;3.40;;;20.10;99.30;;;;;;5050255;28;20119;-78
2022/10/28 08:35:39;;;;;;;11.38;2.80;;;20.10;99.30;;;;;;5050736;28;20036;-80
2022/10/28 08:38:05;;;;;;;10.40;2.95;;;20.20;98.90;;;;;;5050514;28;20116;-82
2022/10/28 08:40:46;;;;;;;14.48;2.78;;;20.20;98.80;;;;;;5065770;28;20055;-79
2022/10/28 08:43:59;;;;;;;7.82;2.95;;;20.20;98.80;;;;;;5050183;28;20374;-78
2022/10/28 08:46:49;;;;;;;11.38;3.13;;;20.30;98.70;;;;;;4988039;28;20034;-78
2022/10/28 08:49:19;;;;;;;15.77;3.40;;;20.30;98.60;;;;;;5050352;28;20415;-77
2022/10/28 08:51:57;;;;;;;14.05;3.70;;;20.40;98.60;;;;;;5050231;28;20037;-81
2022/10/28 08:54:29;;;;;;;12.40;3.47;;;20.40;98.60;;;;;;5049191;28;20052;-83
2022/10/28 08:56:58;;;;;;;18.27;3.03;;;20.40;98.60;;;;;;5050541;28;20040;-82
2022/10/28 08:59:33;;;;;;;14.60;2.90;;;20.30;98.40;;;;;;5068649;28;20355;-79
2022/10/28 09:02:21;;;;;;;12.80;3.10;;;20.30;98.30;;;;;;5069451;28;20049;-80
2022/10/28 09:04:57;;;;;;;12.52;2.90;;;20.40;98.50;;;;;;5054089;28;20048;-77
2022/10/28 09:07:23;;;;;;;11.20;3.42;;;20.40;98.40;;;;;;5059748;28;20029;-77
2022/10/28 09:09:51;;;;;;;8.25;2.78;;;20.50;98.50;;;;;;5051789;28;20033;-78
2022/10/28 09:12:40;;;;;;;19.63;3.20;;;20.60;98.60;;;;;;5052813;28;20506;-78
2022/10/28 09:15:35;;;;;;;14.35;2.58;;;20.70;98.20;;;;;;5068304;28;20247;-79
2022/10/28 09:18:07;;;;;;;15.23;3.45;;;20.70;98.00;;;;;;5025969;28;20037;-78
2022/10/28 09:20:51;;;;;;;8.88;2.72;;;20.80;98.10;;;;;;5053468;28;20053;-80
2022/10/28 09:23:40;;;;;;;9.15;3.08;;;20.90;97.50;;;;;;5052869;28;20056;-78
2022/10/28 09:26:30;;;;;;;10.02;2.40;;;21.00;97.70;;;;;;5053284;28;20333;-73
2022/10/28 09:29:20;;;;;;;15.63;3.33;;;21.10;98.00;;;;;;5052641;28;20050;-77
2022/10/28 09:31:52;;;;;;;11.27;3.22;;;21.20;97.50;;;;;;5052491;28;20060;-75
2022/10/28 09:34:27;;;;;;;16.42;3.10;;;21.30;97.40;;;;;;5052274;28;20482;-76
2022/10/28 09:37:05;;;;;;;16.85;3.10;;;21.40;96.90;;;;;;5052517;28;20094;-75
2022/10/28 09:39:41;;;;;;;10.55;2.95;;;21.70;96.50;;;;;;5052178;28;20067;-75
2022/10/28 09:42:12;;;;;;;10.65;2.70;;;22.50;96.30;;;;;;5052047;28;20025;-75
2022/10/28 09:45:13;;;;;;;10.75;2.97;;;23.60;96.10;;;;;;5052572;28;20021;-76
2022/10/28 09:47:54;;;;;;;13.00;3.08;;;24.60;94.30;;;;;;5018575;28;20055;-82
2022/10/28 09:50:22;;;;;;;8.38;2.92;;;25.60;92.80;;;;;;5069348;28;20465;-82
2022/10/28 09:52:57;;;;;;;10.10;3.22;;;26.30;92.90;;;;;;5052430;28;20491;-81
2022/10/28 09:55:23;;;;;;;10.63;3.15;;;26.80;92.50;;;;;;5067986;28;20060;-83
2022/10/28 09:57:50;;;;;;;8.50;2.88;;;26.90;90.70;;;;;;5051568;28;20033;-82
2022/10/28 10:00:16;;;;;;;9.52;2.78;;;27.80;90.90;;;;;;5052326;28;20471;-84
2022/10/28 10:02:43;;;;;;;9.73;3.22;;;28.10;85.40;;;;;;5068781;28;20040;-81
2022/10/28 10:05:15;;;;;;;12.75;2.40;;;28.80;86.00;;;;;;5050700;28;20036;-83
2022/10/28 10:07:56;;;;;;;11.35;3.33;;;29.40;81.20;;;;;;5068119;28;20079;-83
2022/10/28 10:10:38;;;;;;;10.50;3.58;;;29.90;81.60;;;;;;5051359;28;20422;-78
2022/10/28 10:13:06;;;;;;;12.43;3.35;;;30.70;81.40;;;;;;5051869;28;20045;-81
2022/10/28 10:15:44;;;;;;;13.02;3.25;;;31.20;81.00;;;;;;5052055;28;20021;-80
2022/10/28 10:18:17;;;;;;;11.75;3.30;;;31.50;80.00;;;;;;5067330;28;20445;-79
2022/10/28 10:20:52;;;;;;;16.55;5.80;;;32.00;78.00;;;;;;5054527;28;20028;-82
2022/10/28 10:23:37;;;;;;;9.80;3.85;;;32.10;73.60;;;;;;5051944;28;20044;-82
2022/10/28 10:26:06;;;;;;;10.95;3.10;;;32.40;71.20;;;;;;5069737;28;20037;-82
2022/10/28 10:28:35;;;;;;;12.32;2.92;;;32.60;71.00;;;;;;5052732;28;20056;-82
2022/10/28 10:31:04;;;;;;;10.95;2.90;;;33.20;70.10;;;;;;5052823;28;20057;-83
2022/10/28 10:33:33;;;;;;;13.73;3.03;;;33.40;75.00;;;;;;5052063;28;20467;-83
2022/10/28 10:36:08;;;;;;;9.45;2.88;;;33.10;67.90;;;;;;5053875;28;20074;-83
2022/10/28 10:38:34;;;;;;;14.88;2.70;;;33.30;68.70;;;;;;5054503;28;20391;-80
2022/10/28 10:41:00;;;;;;;14.02;3.63;;;33.40;66.40;;;;;;5052655;28;20079;-87
2022/10/28 10:43:26;;;;;;;10.00;2.95;;;33.00;62.20;;;;;;5068427;28;20553;-81
2022/10/28 10:45:59;;;;;;;11.15;2.88;;;32.90;64.40;;;;;;5067391;28;20040;-82
2022/10/28 10:48:26;;;;;;;15.07;3.28;;;33.20;66.20;;;;;;5051250;28;20033;-78
2022/10/28 10:50:53;;;;;;;12.98;3.22;;;33.50;65.60;;;;;;5051206;28;20111;-82
2022/10/28 10:53:27;;;;;;;15.10;3.45;;;33.60;62.70;;;;;;5067162;28;20887;-79
2022/10/28 10:56:14;;;;;;;12.70;3.65;;;33.40;62.00;;;;;;5051041;28;20422;-78
2022/10/28 10:58:48;;;;;;;14.70;3.60;;;32.50;63.30;;;;;;5050799;28;20479;-79
2022/10/28 11:01:20;;;;;;;11.20;3.00;;;32.50;64.80;;;;;;5066628;28;20064;-78
2022/10/28 11:03:56;;;;;;;14.43;3.33;;;32.70;61.80;;;;;;5051029;28;20025;-81
2022/10/28 11:06:26;;;;;;;8.73;2.53;;;32.60;62.50;;;;;;5051500;28;20025;-81
2022/10/28 11:09:01;;;;;;;12.35;3.53;;;32.40;62.70;;;;;;5050278;28;20731;-82
2022/10/28 11:11:39;;;;;;;15.63;3.53;;;32.10;63.30;;;;;;5069138;28;20029;-78
2022/10/28 11:14:08;;;;;;;11.98;3.22;;;31.10;63.30;;;;;;5051686;28;20052;-77
2022/10/28 11:16:49;;;;;;;15.57;3.67;;;31.20;65.80;;;;;;5052107;28;20095;-78
2022/10/28 11:19:31;;;;;;;13.48;2.88;;;31.20;67.10;;;;;;5054503;28;20029;-77
2022/10/28 11:22:23;;;;;;;12.98;3.38;;;31.20;65.30;;;;;;5054644;28;20043;-78
2022/10/28 11:25:19;;;;;;;17.17;3.83;;;31.00;64.90;;;;;;5053997;28;20029;-78
2022/10/28 11:28:02;;;;;;;7.10;2.80;;;31.10;65.10;;;;;;5053249;28;20117;-77
2022/10/28 11:30:49;;;;;;;13.60;2.78;;;31.40;65.20;;;;;;5055064;28;20056;-77
2022/10/28 11:33:19;;;;;;;;;;;31.20;64.30;;;;;;5051762;28;20362;-79
2022/10/28 11:36:01;;;;;;;14.45;3.30;;;30.90;65.10;;;;;;5050315;28;19952;-78
2022/10/28 11:38:45;;;;;;;17.08;5.47;;;30.30;66.50;;;;;;5051442;28;20048;-78
2022/10/28 11:41:28;;;;;;;12.43;3.40;;;30.00;67.30;;;;;;5051393;28;20029;-77
2022/10/28 11:43:56;;;;;;;13.70;3.17;;;29.50;68.00;;;;;;5051280;28;20040;-79
2022/10/28 11:46:22;;;;;;;12.23;2.70;;;29.20;68.30;;;;;;5066650;28;20025;-80
2022/10/28 11:49:15;;;;;;;11.98;3.50;;;29.00;68.90;;;;;;5051293;28;20455;-82
2022/10/28 11:51:40;;;;;;;13.10;2.95;;;28.90;69.50;;;;;;5050065;28;20441;-78
2022/10/28 11:54:43;;;;;;;10.05;3.10;;;28.50;70.10;;;;;;5049885;28;20025;-79
2022/10/28 11:57:09;;;;;;;9.25;2.70;;;28.50;70.30;;;;;;5067003;28;20107;-81
2022/10/28 12:00:19;;;;;;;13.40;3.95;;;28.20;71.10;;;;;;5052280;28;20450;-80
2022/10/28 12:03:41;;;;;;;10.85;2.80;;;28.00;71.50;;;;;;5027785;28;20128;-81
2022/10/28 12:06:51;;;;;;;14.10;3.50;;;27.70;72.10;;;;;;4989426;28;20082;-78
2022/10/28 12:09:54;;;;;;;12.25;2.88;;;27.70;72.60;;;;;;5065726;28;20037;-80
2022/10/28 12:12:35;;;;;;;14.18;2.85;;;27.40;73.20;;;;;;5068672;28;20044;-81
2022/10/28 12:15:09;;;;;;;16.98;3.10;;;27.10;73.20;;;;;;5050364;28;20037;-78
2022/10/28 12:18:36;;;;;;;13.18;3.30;;;27.00;74.10;;;;;;5051755;28;20025;-79
2022/10/28 12:21:10;;;;;;;13.98;2.80;;;26.90;75.30;;;;;;4996840;28;20044;-82
2022/10/28 12:23:39;;;;;;;13.68;3.58;;;26.90;76.00;;;;;;5053246;28;20031;-80
2022/10/28 12:26:09;;;;;;;17.63;3.40;;;26.90;75.90;;;;;;5052518;28;20040;-80
2022/10/28 12:28:47;;;;;;;17.33;3.42;;;26.70;78.60;;;;;;5055828;28;20037;-77
2022/10/28 12:31:24;;;;;;;13.57;2.95;;;26.70;76.40;;;;;;5077038;28;20255;-80
2022/10/28 12:33:54;;;;;;;14.20;3.17;;;26.70;76.60;;;;;;5057576;28;20055;-80
2022/10/28 12:36:33;;;;;;;10.98;3.20;;;26.50;76.70;;;;;;5075922;28;20470;-79
2022/10/28 12:39:26;;;;;;;12.82;3.22;;;26.40;76.90;;;;;;5059949;28;20496;-82
2022/10/28 12:42:01;;;;;;;13.57;2.92;;;26.40;77.30;;;;;;5075287;28;20021;-82
2022/10/28 12:44:28;;;;;;;17.88;3.50;;;26.20;77.30;;;;;;5075321;28;20017;-79
2022/10/28 12:46:56;;;;;;;18.42;3.65;;;26.10;78.90;;;;;;5058720;28;20029;-81
2022/10/28 12:49:41;;;;;;;13.55;2.88;;;26.00;78.70;;;;;;5057035;28;20095;-79
2022/10/28 12:52:31;;;;;;;18.15;3.33;;;26.00;79.30;;;;;;5075779;28;20041;-79
2022/10/28 12:55:12;;;;;;;11.45;3.30;;;26.00;79.10;;;;;;5061372;28;20131;-81
2022/10/28 12:57:50;;;;;;;12.13;3.05;;;26.00;79.30;;;;;;5056588;28;20033;-81
2022/10/28 13:00:24;;;;;;;8.85;3.10;;;26.00;79.30;;;;;;5070008;28;20040;-81
2022/10/28 13:02:59;;;;;;;11.70;3.35;;;25.90;79.60;;;;;;5054892;28;20021;-78
2022/10/28 13:05:30;;;;;;;15.63;3.55;;;25.80;79.90;;;;;;5055043;28;20031;-81
2022/10/28 13:08:12;;;;;;;20.55;3.85;;;25.60;79.70;;;;;;5054972;28;20048;-81